CheckWX is a tool to help pilots better visualize weather data.  It is not intended as a substitute for an official pre-flight weather briefing.

19:18:30 UTC

KNXF METAR
MCOLF Camp Pendleton (Red Beach) Airport
Oceanside, California, USA
Current

5 hours ago

KNXF 201356Z AUTO 02003KT 5SM BR OVC004 17/17 A2996 RMK AO2 SLP229 T01720167
Observed
Aug-20 @ 13:56 UTC
Wind
  • 020° at 3 KTS
Visibility
5 SM
Flight Rules
LIFR
Conditions
Mist
Cloud Levels
  • Overcast at 400' AGL
Temperature
17°C / 63°F
Dewpoint
17°C / 63°F
Humidity
100%
Altimeter
29.96" Hg
Pressure
1014.52 hPa
Previous

6 hours ago

KNXF 201327Z AUTO 02004KT 6SM BR OVC004 17/17 A2995 RMK AO2 CIG 003V007 T01720167
Observed
Aug-20 @ 13:27 UTC
Wind
  • 020° at 4 KTS
Visibility
6 SM
Flight Rules
LIFR
Conditions
Mist
Cloud Levels
  • Overcast at 400' AGL
Temperature
17°C / 63°F
Dewpoint
17°C / 63°F
Humidity
100%
Altimeter
29.95" Hg
Pressure
1014.22 hPa
Previous

6 hours ago

KNXF 201307Z AUTO 02005KT 5SM BR OVC004 17/16 A2995 RMK AO2 CIG 002V007 T01720161
Observed
Aug-20 @ 13:07 UTC
Wind
  • 020° at 5 KTS
Visibility
5 SM
Flight Rules
LIFR
Conditions
Mist
Cloud Levels
  • Overcast at 400' AGL
Temperature
17°C / 63°F
Dewpoint
16°C / 61°F
Humidity
94%
Altimeter
29.95" Hg
Pressure
1014.22 hPa